Terminal Aerodrome Forecast
Issued by NWS

Home | Current Version | Previous Version | Text Only | Print | Product List | Glossary On
Versions: 1 2 3 4 5 6 7 8 9 10 11 12 13 14 15 16 17
000
FTUS45 KFGZ 252300
TAFPRC
TAF
KPRC 252328Z 2600/2624 28010G17KT P6SM SCT050 BKN080
     FM260200 29008KT P6SM FEW050
     FM261200 VRB05KT P6SM SCT050=

USA.gov is the U.S. government's official web portal to all federal, state and local government web resources and services.